Time;durP1;ratioP1;P1;durP2;ratioP2;P2;SDS_P1;SDS_P2;PMS_P1;PMS_P2;Temp;Humidity;BMP_temperature;BMP_pressure;BME280_temperature;BME280_humidity;BME280_pressure;Samples;Min_cycle;Max_cycle;Signal;HPM_P1;HPM_P2
2021/03/02 00:00:52;;;;;;;17.70;11.88;;;;;;;3.39;67.78;101969.25;1681826;83;21256;-53
2021/03/02 00:03:58;;;;;;;17.75;12.33;;;;;;;3.43;67.76;101968.97;1682054;85;21309;-54
2021/03/02 00:07:04;;;;;;;20.02;12.13;;;;;;;3.46;67.70;101968.78;1682119;85;21237;-53
2021/03/02 00:10:12;;;;;;;18.17;11.95;;;;;;;3.47;67.70;101956.13;1682043;85;21236;-53
2021/03/02 00:13:19;;;;;;;19.02;11.95;;;;;;;3.49;67.68;101956.91;1681998;85;21276;-54
2021/03/02 00:16:34;;;;;;;17.90;11.38;;;;;;;3.49;67.71;101948.29;1681522;85;21232;-53
2021/03/02 00:19:54;;;;;;;15.28;10.72;;;;;;;3.51;67.73;101932.84;1682091;85;21762;-53
2021/03/02 00:23:15;;;;;;;12.70;9.68;;;;;;;3.53;67.77;101932.27;1682319;83;21259;-53
2021/03/02 00:26:20;;;;;;;17.67;11.65;;;;;;;3.55;67.77;101927.61;1682076;85;21237;-54
2021/03/02 00:29:26;;;;;;;19.10;11.18;;;;;;;3.57;67.79;101934.31;1678315;85;21209;-54
2021/03/02 00:32:30;;;;;;;16.60;10.93;;;;;;;3.60;67.92;101932.27;1682397;84;21244;-52
2021/03/02 00:35:37;;;;;;;15.10;11.40;;;;;;;3.63;67.96;101920.39;1681130;81;21241;-53
2021/03/02 00:38:42;;;;;;;18.98;12.43;;;;;;;3.65;68.02;101918.44;1677370;84;21246;-52
2021/03/02 00:41:46;;;;;;;16.55;11.85;;;;;;;3.66;68.07;101914.31;1690737;83;21438;-55
2021/03/02 00:44:53;;;;;;;14.75;10.40;;;;;;;3.66;68.10;101910.72;1674505;84;21303;-53
2021/03/02 00:47:59;;;;;;;14.28;10.28;;;;;;;3.60;68.16;101902.48;1673414;84;21238;-53
2021/03/02 00:51:04;;;;;;;15.05;10.18;;;;;;;3.59;68.26;101896.69;1674672;85;21204;-54
2021/03/02 00:54:11;;;;;;;15.03;10.60;;;;;;;3.58;68.29;101899.02;1678485;84;21831;-54
2021/03/02 00:57:17;;;;;;;17.30;11.85;;;;;;;3.61;68.28;101900.66;1661225;85;21385;-54
2021/03/02 01:00:23;;;;;;;15.40;10.00;;;;;;;3.62;68.28;101894.26;1648748;86;21411;-54
2021/03/02 01:03:30;;;;;;;14.40;9.95;;;;;;;3.61;68.22;101884.41;1675898;84;21602;-54
2021/03/02 01:06:38;;;;;;;17.20;11.22;;;;;;;3.58;68.21;101887.31;1653988;85;21245;-53
2021/03/02 01:09:44;;;;;;;16.55;11.30;;;;;;;3.54;68.26;101885.27;1681575;84;21224;-54
2021/03/02 01:12:49;;;;;;;16.75;11.65;;;;;;;3.56;68.35;101894.64;1674618;85;21352;-53
2021/03/02 01:15:55;;;;;;;15.03;11.15;;;;;;;3.51;68.39;101885.45;1674704;85;21212;-55
2021/03/02 01:19:01;;;;;;;16.75;10.43;;;;;;;3.50;68.53;101882.38;1675035;85;21252;-53
2021/03/02 01:22:06;;;;;;;15.13;10.70;;;;;;;3.53;68.63;101885.36;1674994;85;21768;-53
2021/03/02 01:25:17;;;;;;;16.65;10.35;;;;;;;3.53;68.67;101871.35;1674399;84;21248;-52
2021/03/02 01:28:22;;;;;;;16.90;11.20;;;;;;;3.52;68.73;101870.09;1674582;85;21295;-52
2021/03/02 01:31:27;;;;;;;15.98;10.93;;;;;;;3.51;68.83;101866.51;1675488;83;21223;-53
2021/03/02 01:34:34;;;;;;;16.48;10.45;;;;;;;3.50;68.91;101863.90;1674724;84;21307;-52
2021/03/02 01:37:39;;;;;;;16.45;10.88;;;;;;;3.48;68.98;101857.23;1674836;83;21450;-51
2021/03/02 01:40:45;;;;;;;16.48;11.12;;;;;;;3.53;69.07;101851.05;1669401;84;21233;-52
2021/03/02 01:43:52;;;;;;;15.35;10.93;;;;;;;3.49;69.08;101835.09;1668413;86;21249;-52
2021/03/02 01:46:58;;;;;;;14.90;10.98;;;;;;;3.46;69.25;101836.61;1673068;85;21681;-51
2021/03/02 01:50:04;;;;;;;17.98;11.38;;;;;;;3.45;69.33;101837.59;1673786;85;21252;-51
2021/03/02 01:53:10;;;;;;;17.17;12.20;;;;;;;3.41;69.48;101833.34;1677326;84;21318;-51
2021/03/02 01:56:15;;;;;;;19.85;13.05;;;;;;;3.32;69.65;101829.36;1677392;85;21300;-54
2021/03/02 01:59:20;;;;;;;18.62;12.88;;;;;;;3.32;69.88;101825.77;1706992;84;21197;-53
2021/03/02 02:02:29;;;;;;;19.98;13.93;;;;;;;3.28;69.98;101826.47;1681938;84;21231;-54
2021/03/02 02:05:35;;;;;;;21.90;14.63;;;;;;;3.28;70.22;101825.12;1673074;85;21401;-53
2021/03/02 02:08:56;;;;;;;20.92;13.90;;;;;;;3.28;70.33;101821.53;1679897;85;21781;-53
2021/03/02 02:12:20;;;;;;;20.68;14.50;;;;;;;3.26;70.49;101816.22;1684509;85;21374;-52
2021/03/02 02:15:29;;;;;;;23.12;15.25;;;;;;;3.23;70.69;101807.41;1681805;85;21251;-52
2021/03/02 02:18:38;;;;;;;22.02;15.08;;;;;;;3.17;70.91;101801.91;1652807;86;21285;-51
2021/03/02 02:22:11;;;;;;;24.30;14.87;;;;;;;3.17;71.09;101791.09;1679198;84;21753;-51
2021/03/02 02:25:30;;;;;;;21.40;14.93;;;;;;;3.14;71.27;101781.78;1675437;85;21180;-52
2021/03/02 02:28:34;;;;;;;23.25;15.63;;;;;;;3.15;71.44;101780.84;1680662;85;21256;-52
2021/03/02 02:31:40;;;;;;;26.35;16.80;;;;;;;3.18;71.57;101781.99;1672914;85;21243;-54
2021/03/02 02:34:46;;;;;;;22.82;16.10;;;;;;;3.19;71.64;101782.87;1706781;84;21398;-54
2021/03/02 02:37:53;;;;;;;23.83;16.42;;;;;;;3.18;71.74;101776.58;1691701;83;21361;-51
2021/03/02 02:40:59;;;;;;;23.92;16.60;;;;;;;3.20;71.81;101783.25;1686757;85;21279;-52
2021/03/02 02:44:05;;;;;;;24.23;15.65;;;;;;;3.20;71.87;101780.08;1691895;83;21255;-51
2021/03/02 02:47:11;;;;;;;22.58;16.40;;;;;;;3.20;71.98;101778.72;1681706;84;21390;-51
2021/03/02 02:50:18;;;;;;;23.30;15.58;;;;;;;3.25;72.04;101778.43;1691807;85;21365;-51
2021/03/02 02:53:22;;;;;;;27.42;17.62;;;;;;;3.28;72.04;101782.30;1681511;85;21903;-51
2021/03/02 02:56:28;;;;;;;26.82;17.92;;;;;;;3.29;72.08;101776.78;1694010;84;21380;-53
2021/03/02 02:59:40;;;;;;;30.05;17.20;;;;;;;3.32;72.06;101779.30;1681497;85;21212;-53
2021/03/02 03:02:47;;;;;;;28.98;18.98;;;;;;;3.31;72.10;101766.74;1691481;85;21931;-53
2021/03/02 03:05:57;;;;;;;27.50;18.45;;;;;;;3.33;72.13;101765.30;1681363;85;21219;-53
2021/03/02 03:09:02;;;;;;;26.17;17.80;;;;;;;3.32;72.11;101759.00;1684430;85;21239;-51
2021/03/02 03:12:11;;;;;;;28.77;19.50;;;;;;;3.30;72.15;101747.39;1681541;84;21701;-51
2021/03/02 03:15:17;;;;;;;31.33;20.00;;;;;;;3.30;72.19;101739.27;1691719;85;21223;-51
2021/03/02 03:18:24;;;;;;;27.58;18.07;;;;;;;3.32;72.17;101736.00;1681437;85;21385;-51
2021/03/02 03:21:29;;;;;;;27.37;18.85;;;;;;;3.33;72.14;101729.61;1691545;85;21207;-51
2021/03/02 03:24:34;;;;;;;27.80;17.67;;;;;;;3.35;72.11;101733.09;1681527;85;21864;-51
2021/03/02 03:27:40;;;;;;;26.12;17.50;;;;;;;3.37;72.02;101730.28;1684118;85;21362;-52
2021/03/02 03:30:46;;;;;;;26.82;18.12;;;;;;;3.36;71.99;101729.44;1681329;85;21244;-52
2021/03/02 03:33:53;;;;;;;30.17;19.12;;;;;;;3.37;72.02;101731.64;1684063;84;21522;-52
2021/03/02 03:36:58;;;;;;;28.42;19.87;;;;;;;3.41;71.98;101722.38;1681253;85;21224;-52
2021/03/02 03:40:04;;;;;;;28.95;19.85;;;;;;;3.43;71.85;101716.36;1685552;81;21378;-53
2021/03/02 03:43:11;;;;;;;31.65;20.72;;;;;;;3.45;71.81;101712.61;1670848;85;21386;-51
2021/03/02 03:46:16;;;;;;;27.67;19.73;;;;;;;3.49;71.70;101701.11;1675317;83;21244;-51
2021/03/02 03:49:22;;;;;;;33.80;21.68;;;;;;;3.50;71.51;101702.83;1674570;85;21453;-51
2021/03/02 03:52:28;;;;;;;31.12;20.72;;;;;;;3.51;71.44;101699.14;1674889;85;21240;-52
2021/03/02 03:55:47;;;;;;;27.62;19.40;;;;;;;3.55;71.34;101693.94;1674759;85;21248;-51
2021/03/02 03:58:54;;;;;;;32.75;22.17;;;;;;;3.55;71.18;101686.66;1681570;85;21381;-52
2021/03/02 04:02:02;;;;;;;28.50;20.68;;;;;;;3.55;70.94;101681.25;1663229;85;21488;-49
2021/03/02 04:05:10;;;;;;;30.95;21.50;;;;;;;3.56;70.93;101677.59;1674638;84;21216;-49
2021/03/02 04:08:15;;;;;;;35.78;22.02;;;;;;;3.59;70.89;101675.16;1674703;84;21798;-49
2021/03/02 04:11:20;;;;;;;30.50;20.20;;;;;;;3.59;70.77;101672.45;1674734;85;21203;-49
2021/03/02 04:14:25;;;;;;;29.32;20.02;;;;;;;3.60;70.60;101665.58;1674606;85;21220;-50
2021/03/02 04:17:30;;;;;;;25.32;17.50;;;;;;;3.62;70.44;101669.53;1674592;84;21255;-50
2021/03/02 04:20:37;;;;;;;25.75;17.52;;;;;;;3.63;70.24;101668.59;1673777;85;21800;-49
2021/03/02 04:23:43;;;;;;;25.80;18.57;;;;;;;3.57;69.92;101661.72;1673154;84;21879;-47
2021/03/02 04:26:49;;;;;;;29.80;17.85;;;;;;;3.50;69.84;101666.29;1686464;83;21465;-49
2021/03/02 04:29:55;;;;;;;27.32;17.12;;;;;;;3.45;69.99;101661.66;1670906;85;21268;-48
2021/03/02 04:33:01;;;;;;;30.50;18.25;;;;;;;3.43;70.07;101661.75;1674550;85;21252;-49
2021/03/02 04:36:07;;;;;;;23.95;16.85;;;;;;;3.38;70.15;101640.88;1674602;85;21776;-48
2021/03/02 04:39:13;;;;;;;27.58;17.48;;;;;;;3.34;70.32;101638.00;1674542;85;21255;-49
2021/03/02 04:42:21;;;;;;;26.00;17.52;;;;;;;3.32;70.41;101641.28;1689340;83;21774;-50
2021/03/02 04:45:27;;;;;;;24.55;15.93;;;;;;;3.31;70.45;101635.50;1686618;85;21231;-50
2021/03/02 04:48:33;;;;;;;26.20;17.20;;;;;;;3.30;70.57;101628.33;1683409;83;21370;-50
2021/03/02 04:51:39;;;;;;;20.88;14.80;;;;;;;3.35;70.62;101622.61;1638022;87;21251;-49
2021/03/02 04:54:45;;;;;;;21.93;15.65;;;;;;;3.41;70.50;101623.09;1682355;85;21855;-49
2021/03/02 04:57:51;;;;;;;22.67;15.80;;;;;;;3.42;70.42;101606.37;1686597;84;21389;-53
2021/03/02 05:00:56;;;;;;;24.20;16.55;;;;;;;3.44;70.44;101605.28;1682876;85;21422;-49
2021/03/02 05:04:02;;;;;;;27.00;16.95;;;;;;;3.49;70.38;101603.15;1687560;85;21425;-49
2021/03/02 05:07:09;;;;;;;27.42;17.37;;;;;;;3.54;70.32;101601.02;1686687;85;21401;-48
2021/03/02 05:10:15;;;;;;;27.52;18.52;;;;;;;3.59;70.19;101593.94;1692370;84;21215;-49
2021/03/02 05:13:21;;;;;;;27.32;19.73;;;;;;;3.59;70.13;101590.75;1686343;83;21891;-48
2021/03/02 05:16:28;;;;;;;22.17;15.48;;;;;;;3.64;70.07;101587.27;1686348;85;21275;-49
2021/03/02 05:19:34;;;;;;;23.47;16.15;;;;;;;3.69;69.99;101577.47;1691731;85;21286;-49
2021/03/02 05:22:42;;;;;;;22.45;14.98;;;;;;;3.73;69.82;101576.28;1691408;83;21289;-49
2021/03/02 05:25:48;;;;;;;18.23;13.45;;;;;;;3.76;69.66;101576.95;1682281;83;21188;-48
2021/03/02 05:28:57;;;;;;;19.02;13.10;;;;;;;3.78;69.57;101566.89;1682054;84;21374;-48
2021/03/02 05:32:03;;;;;;;17.12;12.35;;;;;;;3.84;69.54;101567.81;1685943;85;21966;-49
2021/03/02 05:35:09;;;;;;;18.77;12.60;;;;;;;3.93;69.34;101570.40;1683424;83;21358;-49
2021/03/02 05:38:14;;;;;;;20.27;12.63;;;;;;;3.95;69.17;101563.89;1658944;85;21222;-50
2021/03/02 05:41:20;;;;;;;17.52;11.95;;;;;;;4.02;69.04;101552.15;1677110;84;21195;-49
2021/03/02 05:44:26;;;;;;;18.35;12.40;;;;;;;4.08;68.85;101548.53;1682236;84;21192;-48
2021/03/02 05:47:32;;;;;;;18.30;11.73;;;;;;;4.14;68.63;101545.39;1679999;84;21908;-49
2021/03/02 05:50:38;;;;;;;16.48;11.33;;;;;;;4.16;68.42;101539.38;1680367;84;21470;-49
2021/03/02 05:53:47;;;;;;;18.23;11.70;;;;;;;4.20;68.26;101546.31;1689217;84;21222;-49
2021/03/02 05:56:53;;;;;;;17.05;11.18;;;;;;;4.23;68.04;101547.96;1674082;85;21358;-49
2021/03/02 05:59:58;;;;;;;21.55;11.85;;;;;;;4.24;67.96;101543.78;1650611;85;21607;-49
2021/03/02 06:03:04;;;;;;;19.62;11.68;;;;;;;4.26;67.78;101541.84;1601985;88;21271;-49
2021/03/02 06:06:13;;;;;;;15.28;10.85;;;;;;;4.27;67.71;101533.20;1682116;83;21198;-48
2021/03/02 06:09:19;;;;;;;17.57;10.68;;;;;;;4.25;67.68;101531.95;1651079;85;21743;-49
2021/03/02 06:12:23;;;;;;;16.90;11.78;;;;;;;4.30;67.76;101530.27;1627846;87;21710;-50
2021/03/02 06:15:29;;;;;;;18.65;10.82;;;;;;;4.38;67.53;101538.73;1697013;84;21545;-49
2021/03/02 06:18:35;;;;;;;16.37;10.88;;;;;;;4.43;67.41;101537.92;1683898;83;21203;-50
2021/03/02 06:21:40;;;;;;;15.13;9.65;;;;;;;4.47;67.20;101529.97;1682468;85;21307;-50
2021/03/02 06:24:48;;;;;;;14.10;10.43;;;;;;;4.53;67.21;101526.82;1627245;87;21253;-48
2021/03/02 06:27:53;;;;;;;18.32;10.55;;;;;;;4.63;67.03;101527.02;1655236;85;22111;-50
2021/03/02 06:30:59;;;;;;;14.60;8.85;;;;;;;4.71;66.79;101531.41;1677916;84;21219;-49
2021/03/02 06:34:26;;;;;;;12.03;8.63;;;;;;;4.78;66.49;101523.19;1656536;84;21652;-48
2021/03/02 06:37:31;;;;;;;13.10;8.58;;;;;;;4.85;66.28;101519.06;1682438;84;21768;-49
2021/03/02 06:40:54;;;;;;;13.15;7.47;;;;;;;4.90;66.04;101512.82;1638116;86;21834;-49
2021/03/02 06:43:59;;;;;;;13.38;8.65;;;;;;;4.97;65.86;101512.25;1681953;82;21593;-49
2021/03/02 06:47:04;;;;;;;11.05;7.80;;;;;;;5.04;65.61;101503.17;1645725;85;21791;-49
2021/03/02 06:50:23;;;;;;;12.98;8.75;;;;;;;5.15;65.56;101504.13;1684908;85;21521;-49
2021/03/02 06:53:28;;;;;;;13.75;8.95;;;;;;;5.23;65.17;101508.97;1695977;83;21279;-49
2021/03/02 06:56:32;;;;;;;10.72;7.90;;;;;;;5.24;64.71;101516.13;1714999;82;21236;-49
2021/03/02 06:59:39;;;;;;;12.18;7.92;;;;;;;5.21;64.61;101515.00;1711483;83;21215;-47
2021/03/02 07:02:51;;;;;;;9.00;6.97;;;;;;;5.18;64.57;101515.22;1698587;83;21331;-51
2021/03/02 07:05:57;;;;;;;12.75;7.08;;;;;;;5.18;64.72;101507.08;1706396;83;21354;-46
2021/03/02 07:09:02;;;;;;;14.98;9.13;;;;;;;5.22;64.68;101504.50;1710702;82;21203;-48
2021/03/02 07:12:09;;;;;;;10.88;8.03;;;;;;;5.27;64.84;101498.24;1704918;82;21421;-49
2021/03/02 07:15:21;;;;;;;9.80;7.22;;;;;;;5.39;64.69;101491.39;1657615;86;21337;-49
2021/03/02 07:18:31;;;;;;;9.23;7.15;;;;;;;5.47;64.30;101493.55;1689300;84;21988;-49
2021/03/02 07:21:41;;;;;;;7.87;6.12;;;;;;;5.54;63.93;101498.40;1687396;83;21939;-51
2021/03/02 07:24:47;;;;;;;9.93;6.25;;;;;;;5.52;63.59;101486.77;1650059;85;21224;-50
2021/03/02 07:27:55;;;;;;;10.65;7.30;;;;;;;5.55;63.61;101487.05;1645724;84;21250;-53
2021/03/02 07:31:00;;;;;;;9.68;7.05;;;;;;;5.60;63.69;101488.41;1677874;84;21739;-52
2021/03/02 07:34:07;;;;;;;8.90;5.95;;;;;;;5.58;63.49;101482.73;1674417;84;21341;-52
2021/03/02 07:37:12;;;;;;;7.53;5.62;;;;;;;5.50;63.41;101478.39;1647797;85;21298;-51
2021/03/02 07:40:23;;;;;;;8.88;6.03;;;;;;;5.41;63.58;101477.70;1657310;85;21207;-52
2021/03/02 07:43:39;;;;;;;8.33;6.03;;;;;;;5.30;63.73;101483.95;1680216;82;21201;-53
2021/03/02 07:46:50;;;;;;;9.30;6.08;;;;;;;5.19;63.91;101478.95;1678213;85;21638;-51
2021/03/02 07:49:55;;;;;;;9.78;6.05;;;;;;;5.10;64.09;101482.36;1650873;85;21266;-51
2021/03/02 07:53:25;;;;;;;16.12;9.60;;;;;;;5.01;64.28;101478.47;1675556;84;21487;-51
2021/03/02 07:56:31;;;;;;;8.95;6.17;;;;;;;4.91;64.53;101481.98;1647608;86;21246;-50
2021/03/02 07:59:37;;;;;;;12.35;8.73;;;;;;;4.85;64.92;101477.02;1691763;84;21731;-50
2021/03/02 08:02:43;;;;;;;10.05;6.65;;;;;;;4.86;64.96;101472.84;1677740;84;21219;-50
2021/03/02 08:05:49;;;;;;;9.20;7.00;;;;;;;4.86;65.02;101482.81;1679832;85;21275;-53
2021/03/02 08:08:56;;;;;;;9.00;6.97;;;;;;;4.76;65.06;101471.77;1678728;85;21239;-55
2021/03/02 08:12:30;;;;;;;9.70;7.87;;;;;;;4.69;65.25;101469.62;1662513;85;21207;-54
2021/03/02 08:15:47;;;;;;;12.05;7.70;;;;;;;4.63;65.52;101474.14;1648560;84;21834;-53
2021/03/02 08:18:53;;;;;;;13.75;9.65;;;;;;;4.56;65.85;101469.17;1654676;85;21232;-54
2021/03/02 08:22:00;;;;;;;13.20;8.20;;;;;;;4.52;65.89;101462.70;1637600;86;21264;-55
2021/03/02 08:25:13;;;;;;;14.38;7.90;;;;;;;4.45;66.09;101475.86;1643097;85;22055;-53
2021/03/02 08:28:21;;;;;;;12.90;7.70;;;;;;;4.40;66.44;101471.25;1656347;85;21373;-53
2021/03/02 08:31:26;;;;;;;9.25;7.03;;;;;;;4.37;66.72;101465.18;1655996;84;21212;-53
2021/03/02 08:34:32;;;;;;;11.43;8.18;;;;;;;4.34;66.88;101467.60;1694777;83;21283;-54
2021/03/02 08:38:01;;;;;;;11.65;8.60;;;;;;;4.33;67.08;101459.10;1671407;84;21583;-52
2021/03/02 08:41:06;;;;;;;10.48;8.15;;;;;;;4.33;67.18;101463.17;1656455;85;21289;-53
2021/03/02 08:44:12;;;;;;;13.28;9.10;;;;;;;4.30;67.23;101459.33;1659671;85;21290;-53
2021/03/02 08:47:21;;;;;;;13.10;9.03;;;;;;;4.29;67.42;101459.44;1659258;83;21231;-52
2021/03/02 08:50:47;;;;;;;13.68;10.00;;;;;;;4.22;67.50;101463.55;1641358;86;21234;-52
2021/03/02 08:53:53;;;;;;;10.55;7.95;;;;;;;4.19;67.68;101457.88;1718600;81;21220;-53
2021/03/02 08:57:13;;;;;;;11.28;7.62;;;;;;;4.15;67.76;101462.27;1717732;82;21160;-53
2021/03/02 09:00:25;;;;;;;11.78;8.43;;;;;;;4.10;68.05;101454.47;1721870;82;21675;-53
2021/03/02 09:03:31;;;;;;;15.23;9.45;;;;;;;4.04;68.40;101452.17;1717929;81;21176;-53
2021/03/02 09:06:39;;;;;;;12.30;9.85;;;;;;;4.07;68.55;101449.27;1726789;82;21221;-51
2021/03/02 09:09:47;;;;;;;15.08;10.63;;;;;;;4.06;68.61;101462.42;1720656;82;21185;-53
2021/03/02 09:12:58;;;;;;;18.10;10.95;;;;;;;4.05;68.75;101451.70;1724155;82;21220;-50
2021/03/02 09:16:04;;;;;;;17.02;11.95;;;;;;;4.02;68.90;101453.27;1725801;82;22090;-53
2021/03/02 09:19:21;;;;;;;20.55;14.45;;;;;;;4.00;69.01;101452.02;1709628;82;21272;-54
2021/03/02 09:22:27;;;;;;;18.75;13.88;;;;;;;3.96;69.21;101448.28;1724297;82;21200;-53
2021/03/02 09:25:38;;;;;;;23.60;14.93;;;;;;;3.99;69.34;101446.72;1704306;83;21354;-53
2021/03/02 09:28:45;;;;;;;18.85;13.88;;;;;;;3.98;69.47;101451.77;1690017;83;21243;-51
2021/03/02 09:31:52;;;;;;;18.62;13.45;;;;;;;3.99;69.51;101452.13;1706597;82;21184;-52
2021/03/02 09:35:05;;;;;;;20.20;14.35;;;;;;;3.94;69.61;101451.11;1724830;82;21171;-53
2021/03/02 09:38:11;;;;;;;19.50;14.78;;;;;;;3.93;69.72;101450.70;1691223;82;21228;-53
2021/03/02 09:41:16;;;;;;;21.82;15.00;;;;;;;3.94;69.84;101447.05;1725026;82;21175;-52
2021/03/02 09:44:39;;;;;;;20.68;16.05;;;;;;;4.02;69.87;101441.95;1700758;83;21547;-53
2021/03/02 09:47:45;;;;;;;25.43;16.73;;;;;;;4.08;69.78;101436.09;1689110;83;21196;-53
2021/03/02 09:50:51;;;;;;;26.02;16.65;;;;;;;4.13;69.74;101439.83;1682710;84;22180;-51
2021/03/02 09:53:58;;;;;;;22.00;15.28;;;;;;;4.14;69.73;101424.81;1643815;86;22010;-51
2021/03/02 09:57:08;;;;;;;20.82;14.40;;;;;;;4.18;69.70;101418.21;1672419;84;21184;-54
2021/03/02 10:00:19;;;;;;;27.10;16.32;;;;;;;4.19;69.58;101420.41;1645800;85;21417;-54
2021/03/02 10:03:30;;;;;;;21.70;15.10;;;;;;;4.15;69.74;101413.02;1698335;83;21302;-54
2021/03/02 10:06:36;;;;;;;24.60;16.60;;;;;;;4.17;69.81;101408.33;1700405;82;21248;-52
2021/03/02 10:09:40;;;;;;;23.00;15.75;;;;;;;4.19;69.87;101405.51;1716042;82;21234;-53
2021/03/02 10:12:46;;;;;;;24.20;15.88;;;;;;;4.18;69.83;101392.95;1710944;82;21215;-53
2021/03/02 10:15:52;;;;;;;20.77;15.23;;;;;;;4.11;69.97;101384.39;1713780;83;21195;-54
2021/03/02 10:19:17;;;;;;;22.95;17.23;;;;;;;4.10;70.19;101374.55;1710837;82;21786;-54
2021/03/02 10:22:20;;;;;;;27.52;17.52;;;;;;;4.09;70.16;101378.21;1718104;82;21867;-52
2021/03/02 10:25:27;;;;;;;22.20;16.42;;;;;;;4.05;70.26;101378.06;1710688;83;21212;-51
2021/03/02 10:28:39;;;;;;;25.40;17.32;;;;;;;4.06;70.39;101366.75;1708017;82;21247;-51
2021/03/02 10:31:45;;;;;;;26.60;16.60;;;;;;;4.02;70.49;101365.22;1714972;82;21215;-54
2021/03/02 10:34:50;;;;;;;26.35;17.82;;;;;;;3.96;70.60;101358.42;1740172;82;21717;-53
2021/03/02 10:37:56;;;;;;;23.27;16.73;;;;;;;3.94;70.71;101369.84;1740830;81;21294;-52
2021/03/02 10:41:01;;;;;;;26.15;15.83;;;;;;;3.89;70.79;101354.41;1730457;82;21720;-54
2021/03/02 10:44:06;;;;;;;27.82;18.02;;;;;;;3.87;70.94;101346.87;1722589;82;21866;-53
2021/03/02 10:47:13;;;;;;;28.02;18.45;;;;;;;3.86;70.95;101341.09;1715060;82;21357;-52
2021/03/02 10:50:21;;;;;;;28.98;18.27;;;;;;;3.84;71.09;101345.73;1685663;84;21270;-52
2021/03/02 10:53:27;;;;;;;31.35;20.37;;;;;;;3.84;71.28;101352.98;1683668;85;21440;-52
2021/03/02 10:56:31;;;;;;;28.75;19.25;;;;;;;3.83;71.41;101335.02;1686460;84;21353;-52
2021/03/02 10:59:37;;;;;;;26.90;18.42;;;;;;;3.83;71.42;101344.02;1683733;85;21408;-52
2021/03/02 11:02:42;;;;;;;26.10;17.23;;;;;;;3.79;71.61;101337.08;1669657;83;21249;-54
2021/03/02 11:05:48;;;;;;;28.52;18.75;;;;;;;3.81;71.80;101332.42;1670004;84;21719;-53
2021/03/02 11:08:56;;;;;;;29.52;18.25;;;;;;;3.82;71.90;101334.14;1657448;84;22056;-53
2021/03/02 11:12:03;;;;;;;26.55;18.23;;;;;;;3.80;71.99;101337.47;1671127;85;21799;-54
2021/03/02 11:15:13;;;;;;;28.45;18.70;;;;;;;3.81;72.22;101336.48;1670978;85;21282;-52
2021/03/02 11:18:19;;;;;;;25.82;17.75;;;;;;;3.79;72.37;101322.69;1669099;85;21246;-52
2021/03/02 11:21:26;;;;;;;31.12;18.10;;;;;;;3.76;72.60;101316.98;1645680;85;21274;-52
2021/03/02 11:24:32;;;;;;;28.87;17.42;;;;;;;3.79;72.82;101313.21;1644066;87;21214;-53
2021/03/02 11:27:37;;;;;;;25.50;17.23;;;;;;;3.79;72.78;101305.93;1640465;87;21904;-54
2021/03/02 11:30:44;;;;;;;24.50;16.95;;;;;;;3.74;72.92;101304.03;1641236;87;21265;-53
2021/03/02 11:33:49;;;;;;;24.27;16.02;;;;;;;3.76;73.07;101301.25;1600743;89;21264;-52
2021/03/02 11:36:56;;;;;;;25.95;15.98;;;;;;;3.73;73.17;101306.38;1636477;86;21286;-53
2021/03/02 11:40:01;;;;;;;26.93;18.07;;;;;;;3.75;73.32;101289.55;1627895;88;21733;-54
2021/03/02 11:43:07;;;;;;;23.02;15.50;;;;;;;3.80;73.29;101279.25;1650659;86;21253;-53
2021/03/02 11:46:13;;;;;;;24.52;16.80;;;;;;;3.84;73.21;101272.62;1644596;86;21225;-54
2021/03/02 11:49:21;;;;;;;29.98;16.77;;;;;;;3.89;73.15;101283.11;1614014;83;21682;-53
2021/03/02 11:52:29;;;;;;;29.98;18.02;;;;;;;3.91;73.05;101273.92;1704206;83;21231;-54
2021/03/02 11:55:35;;;;;;;30.43;18.77;;;;;;;3.92;73.00;101255.32;1711255;83;21381;-53
2021/03/02 11:58:41;;;;;;;27.65;17.10;;;;;;;3.92;72.93;101258.03;1710902;83;21776;-53
2021/03/02 12:01:48;;;;;;;28.83;18.73;;;;;;;3.87;72.95;101251.23;1704596;83;21212;-55
2021/03/02 12:04:54;;;;;;;24.15;14.45;;;;;;;3.83;73.00;101249.23;1705751;83;21883;-55
2021/03/02 12:08:00;;;;;;;23.42;15.70;;;;;;;3.87;73.08;101237.19;1708553;82;21235;-55
2021/03/02 12:11:07;;;;;;;26.68;17.17;;;;;;;3.90;73.00;101224.77;1709216;84;21272;-55
2021/03/02 12:14:13;;;;;;;28.75;17.80;;;;;;;3.91;73.06;101212.98;1709541;84;21224;-53
2021/03/02 12:17:19;;;;;;;25.52;16.25;;;;;;;3.99;73.06;101211.92;1701947;83;21430;-55
2021/03/02 12:20:27;;;;;;;23.35;16.07;;;;;;;4.05;72.96;101211.45;1699866;84;21438;-56
2021/03/02 12:23:34;;;;;;;27.30;18.55;;;;;;;4.08;72.69;101224.77;1689755;83;21189;-54
2021/03/02 12:26:41;;;;;;;31.97;21.10;;;;;;;4.05;72.62;101211.45;1697314;83;21217;-55
2021/03/02 12:29:47;;;;;;;30.85;21.82;;;;;;;4.06;72.58;101215.05;1697374;84;21738;-55
2021/03/02 12:32:52;;;;;;;24.37;17.25;;;;;;;4.05;72.50;101204.69;1698068;83;21253;-54
2021/03/02 12:36:00;;;;;;;24.92;15.63;;;;;;;4.07;72.50;101204.09;1704564;83;21205;-55
2021/03/02 12:39:06;;;;;;;25.82;16.00;;;;;;;4.08;72.38;101198.16;1699989;84;21374;-54
2021/03/02 12:42:12;;;;;;;24.05;16.00;;;;;;;4.05;72.31;101193.84;1699380;83;21319;-54
2021/03/02 12:45:18;;;;;;;33.28;20.90;;;;;;;4.04;72.33;101179.91;1696720;84;21996;-54
2021/03/02 12:48:25;;;;;;;26.82;18.12;;;;;;;4.09;72.28;101188.56;1697237;83;21239;-54
2021/03/02 12:51:31;;;;;;;24.80;16.32;;;;;;;4.08;72.12;101185.48;1705482;82;21821;-54
2021/03/02 12:54:36;;;;;;;28.47;17.70;;;;;;;4.06;72.05;101169.83;1691404;84;21252;-55
2021/03/02 12:57:43;;;;;;;29.63;18.60;;;;;;;4.01;72.05;101165.24;1711617;83;21276;-55
2021/03/02 13:00:50;;;;;;;24.67;16.32;;;;;;;4.02;72.04;101162.06;1696594;84;21215;-55
2021/03/02 13:03:57;;;;;;;28.30;17.57;;;;;;;4.02;71.99;101172.41;1713674;82;21272;-54
2021/03/02 13:07:04;;;;;;;29.98;18.23;;;;;;;4.02;71.90;101173.77;1698919;82;21276;-55
2021/03/02 13:10:12;;;;;;;29.15;18.62;;;;;;;3.98;71.83;101154.64;1716076;83;21290;-56
2021/03/02 13:13:19;;;;;;;32.98;21.40;;;;;;;3.98;71.92;101152.45;1702104;83;21293;-56
2021/03/02 13:16:24;;;;;;;30.30;18.42;;;;;;;4.01;71.98;101157.12;1702675;83;21265;-55
2021/03/02 13:19:33;;;;;;;33.02;21.55;;;;;;;4.05;71.82;101141.02;1726225;82;21403;-56
2021/03/02 13:22:39;;;;;;;31.00;19.55;;;;;;;4.06;71.76;101128.36;1741490;81;21409;-54
2021/03/02 13:25:44;;;;;;;30.75;19.67;;;;;;;4.09;71.63;101118.13;1741956;82;21669;-54
2021/03/02 13:28:50;;;;;;;28.98;18.12;;;;;;;4.13;71.66;101120.98;1743065;81;21206;-56
2021/03/02 13:31:57;;;;;;;30.82;19.05;;;;;;;4.18;71.48;101122.86;1743966;81;21225;-56
2021/03/02 13:35:02;;;;;;;34.38;19.55;;;;;;;4.14;71.22;101130.83;1681826;85;21740;-55
2021/03/02 13:38:12;;;;;;;34.98;19.52;;;;;;;4.11;71.40;101131.55;1653246;85;21392;-55
2021/03/02 13:41:17;;;;;;;34.73;20.90;;;;;;;4.10;71.45;101125.29;1657552;86;21319;-54
2021/03/02 13:44:30;;;;;;;33.28;19.73;;;;;;;4.08;71.58;101127.24;1680520;84;21235;-54
2021/03/02 13:47:35;;;;;;;36.95;20.92;;;;;;;4.08;71.48;101131.30;1656993;85;21243;-53
2021/03/02 13:50:41;;;;;;;37.00;20.97;;;;;;;4.05;71.48;101134.73;1638711;87;21212;-54
2021/03/02 13:53:47;;;;;;;39.70;22.27;;;;;;;3.97;71.66;101124.48;1648244;84;21196;-55
2021/03/02 13:56:52;;;;;;;44.53;24.23;;;;;;;3.92;71.94;101130.73;1632288;85;21288;-55
2021/03/02 13:59:57;;;;;;;38.05;21.30;;;;;;;3.89;72.19;101114.72;1641260;84;21751;-54
2021/03/02 14:03:02;;;;;;;44.38;24.75;;;;;;;3.88;72.45;101122.48;1678415;84;21279;-55
2021/03/02 14:06:08;;;;;;;44.80;23.83;;;;;;;3.89;72.65;101114.72;1674978;85;21200;-55
2021/03/02 14:09:15;;;;;;;43.87;23.80;;;;;;;3.88;72.79;101101.30;1672851;84;21840;-54
2021/03/02 14:12:21;;;;;;;42.58;23.25;;;;;;;3.80;73.00;101095.59;1677342;84;21239;-55
2021/03/02 14:15:31;;;;;;;46.13;26.17;;;;;;;3.80;73.30;101088.83;1677286;84;21224;-55
2021/03/02 14:18:36;;;;;;;40.85;23.83;;;;;;;3.79;73.42;101068.15;1649833;87;21253;-54
2021/03/02 14:21:43;;;;;;;45.83;24.23;;;;;;;3.77;73.67;101064.20;1650150;87;21275;-55
2021/03/02 14:24:50;;;;;;;50.25;24.00;;;;;;;3.73;73.83;101064.05;1653645;87;21302;-55